Time;durP1;ratioP1;P1;durP2;ratioP2;P2;SDS_P1;SDS_P2;PMS_P1;PMS_P2;Temp;Humidity;BMP_temperature;BMP_pressure;BME280_temperature;BME280_humidity;BME280_pressure;Samples;Min_cycle;Max_cycle;Signal;HPM_P1;HPM_P2
2023/12/13 00:01:43;;;;;;;6.10;1.20;;;9.50;99.90;;;;;;5094072;28;20029;-68
2023/12/13 00:04:09;;;;;;;6.55;1.30;;;9.40;99.90;;;;;;5077248;28;20107;-68
2023/12/13 00:06:35;;;;;;;5.18;1.70;;;9.40;99.90;;;;;;5077080;28;20060;-69
2023/12/13 00:09:01;;;;;;;9.18;1.50;;;9.40;99.90;;;;;;5060604;28;20098;-69
2023/12/13 00:11:27;;;;;;;9.38;1.70;;;9.40;99.90;;;;;;5077720;28;20029;-69
2023/12/13 00:13:53;;;;;;;5.25;1.50;;;9.40;99.90;;;;;;5093851;28;20435;-69
2023/12/13 00:16:20;;;;;;;5.63;1.35;;;9.40;99.90;;;;;;5077700;28;20040;-69
2023/12/13 00:18:47;;;;;;;7.22;1.52;;;9.30;99.90;;;;;;5077510;28;20028;-68
2023/12/13 00:21:15;;;;;;;8.50;1.50;;;9.30;99.90;;;;;;5060096;28;20021;-69
2023/12/13 00:23:47;;;;;;;7.72;1.48;;;9.30;99.90;;;;;;5077114;28;20031;-68
2023/12/13 00:26:17;;;;;;;5.13;1.10;;;9.20;99.90;;;;;;5077497;28;20028;-70
2023/12/13 00:28:43;;;;;;;4.50;1.23;;;9.20;99.90;;;;;;5077256;28;20137;-70
2023/12/13 00:31:12;;;;;;;7.40;1.42;;;9.30;99.90;;;;;;5077420;28;20111;-70
2023/12/13 00:33:39;;;;;;;6.85;1.40;;;9.40;99.90;;;;;;5076537;28;20025;-70
2023/12/13 00:36:05;;;;;;;13.05;1.75;;;9.30;99.90;;;;;;5076602;28;20300;-70
2023/12/13 00:38:31;;;;;;;5.22;1.50;;;9.30;99.90;;;;;;5077140;28;20300;-70
2023/12/13 00:40:57;;;;;;;6.10;1.40;;;9.40;99.90;;;;;;5077157;28;20031;-68
2023/12/13 00:43:23;;;;;;;10.55;1.70;;;9.30;99.90;;;;;;5076491;28;20036;-69
2023/12/13 00:45:49;;;;;;;7.95;1.50;;;9.30;99.90;;;;;;5076632;28;20348;-69
2023/12/13 00:48:15;;;;;;;10.65;1.67;;;9.30;99.90;;;;;;5077036;28;20090;-69
2023/12/13 00:50:40;;;;;;;8.55;1.60;;;9.30;99.90;;;;;;5077073;28;20033;-69
2023/12/13 00:53:07;;;;;;;9.48;1.35;;;9.30;99.90;;;;;;5077096;28;20036;-67
2023/12/13 00:55:32;;;;;;;9.85;1.80;;;9.30;99.90;;;;;;5076987;28;20036;-68
2023/12/13 00:57:59;;;;;;;5.03;1.08;;;9.20;99.90;;;;;;5076321;28;20044;-68
2023/12/13 01:00:25;;;;;;;9.55;1.90;;;9.30;99.90;;;;;;5092989;28;20032;-69
2023/12/13 01:02:51;;;;;;;6.97;1.27;;;9.20;99.90;;;;;;5076964;28;20444;-69
2023/12/13 01:05:17;;;;;;;7.28;1.40;;;9.30;99.90;;;;;;5076841;28;20032;-68
2023/12/13 01:07:43;;;;;;;9.57;1.33;;;9.20;99.90;;;;;;5076894;28;20376;-69
2023/12/13 01:10:09;;;;;;;9.00;1.52;;;9.30;99.90;;;;;;5077106;28;20123;-69
2023/12/13 01:12:35;;;;;;;11.13;1.83;;;9.30;99.90;;;;;;5076848;28;20060;-69
2023/12/13 01:15:01;;;;;;;11.68;1.80;;;9.30;99.90;;;;;;5076158;28;20127;-70
2023/12/13 01:17:27;;;;;;;8.18;1.63;;;9.20;99.90;;;;;;5076721;28;20407;-68
2023/12/13 01:19:53;;;;;;;13.68;1.95;;;9.20;99.90;;;;;;5076799;28;20341;-69
2023/12/13 01:22:22;;;;;;;13.10;1.88;;;9.20;99.90;;;;;;5076087;28;20121;-68
2023/12/13 01:24:47;;;;;;;10.38;1.70;;;9.20;99.90;;;;;;5076733;28;20348;-68
2023/12/13 01:27:13;;;;;;;6.35;1.38;;;9.10;99.90;;;;;;5076680;28;20086;-68
2023/12/13 01:29:39;;;;;;;12.82;1.80;;;9.10;99.90;;;;;;5075832;28;20068;-69
2023/12/13 01:32:05;;;;;;;14.07;2.30;;;9.10;99.90;;;;;;5076771;28;20111;-68
2023/12/13 01:34:31;;;;;;;9.02;1.60;;;9.10;99.90;;;;;;5092931;28;20033;-68
2023/12/13 01:36:56;;;;;;;9.40;1.80;;;9.10;99.90;;;;;;5079794;28;20029;-69
2023/12/13 01:39:22;;;;;;;12.52;1.83;;;9.10;99.90;;;;;;5096909;28;20357;-68
2023/12/13 01:41:48;;;;;;;11.63;1.98;;;9.10;99.90;;;;;;5080604;28;20384;-68
2023/12/13 01:44:14;;;;;;;9.05;1.77;;;9.20;99.90;;;;;;5080528;28;20313;-69
2023/12/13 01:46:41;;;;;;;13.60;2.33;;;9.20;99.90;;;;;;5080671;28;20165;-68
2023/12/13 01:49:08;;;;;;;8.63;1.80;;;9.20;99.90;;;;;;5079737;28;20107;-68
2023/12/13 01:51:36;;;;;;;8.65;1.60;;;9.20;99.90;;;;;;5080439;28;20047;-69
2023/12/13 01:54:08;;;;;;;8.00;1.98;;;9.20;99.90;;;;;;5080504;28;20056;-68
2023/12/13 01:56:34;;;;;;;;;;;9.20;99.90;;;;;;5080783;28;20333;-67
2023/12/13 01:59:00;;;;;;;13.95;1.80;;;9.20;99.90;;;;;;5080174;28;19959;-68
2023/12/13 02:01:26;;;;;;;14.82;2.20;;;9.20;99.90;;;;;;5079520;28;20036;-67
2023/12/13 02:03:52;;;;;;;10.52;2.03;;;9.10;99.90;;;;;;5080138;28;20086;-68
2023/12/13 02:06:19;;;;;;;12.20;2.00;;;9.10;99.90;;;;;;5096266;28;20037;-69
2023/12/13 02:08:45;;;;;;;8.10;2.00;;;9.10;99.90;;;;;;5080057;28;20392;-69
2023/12/13 02:11:11;;;;;;;8.85;2.22;;;9.10;99.90;;;;;;5079391;28;20109;-69
2023/12/13 02:13:37;;;;;;;11.75;2.05;;;9.20;99.90;;;;;;5079346;28;20125;-69
2023/12/13 02:16:03;;;;;;;10.70;2.08;;;9.20;99.90;;;;;;5079951;28;20036;-70
2023/12/13 02:18:29;;;;;;;8.13;1.80;;;9.20;99.90;;;;;;5079173;28;20331;-70
2023/12/13 02:20:55;;;;;;;10.38;2.03;;;9.20;99.90;;;;;;5079909;28;20035;-70
2023/12/13 02:23:21;;;;;;;13.55;2.13;;;9.40;99.90;;;;;;5079080;28;20055;-71
2023/12/13 02:25:57;;;;;;;6.00;1.88;;;9.30;99.90;;;;;;5078997;28;20407;-70
2023/12/13 02:28:27;;;;;;;10.52;1.70;;;9.40;99.90;;;;;;5079268;28;20062;-70
2023/12/13 02:30:55;;;;;;;8.45;1.75;;;9.40;99.90;;;;;;5078575;28;20423;-70
2023/12/13 02:33:25;;;;;;;10.75;1.98;;;9.40;99.90;;;;;;5094539;28;20112;-70
2023/12/13 02:35:59;;;;;;;17.60;2.47;;;9.40;99.90;;;;;;5094626;28;20036;-69
2023/12/13 02:38:25;;;;;;;11.18;2.35;;;9.40;99.90;;;;;;5078341;28;20123;-70
2023/12/13 02:40:52;;;;;;;10.75;2.03;;;9.40;99.90;;;;;;5077731;28;20040;-70
2023/12/13 02:43:19;;;;;;;10.13;1.92;;;9.40;99.90;;;;;;5078377;28;20037;-70
2023/12/13 02:45:45;;;;;;;11.52;2.28;;;9.40;99.90;;;;;;5060836;28;20107;-70
2023/12/13 02:48:10;;;;;;;9.07;2.35;;;9.30;99.90;;;;;;5077201;28;20127;-71
2023/12/13 02:50:39;;;;;;;20.67;2.17;;;9.30;99.90;;;;;;5094356;28;20063;-69
2023/12/13 02:53:06;;;;;;;10.60;1.60;;;9.40;99.90;;;;;;5060637;28;20060;-69
2023/12/13 02:55:32;;;;;;;13.82;2.13;;;9.40;99.90;;;;;;5060616;28;20086;-68
2023/12/13 02:57:59;;;;;;;9.55;1.73;;;9.30;99.90;;;;;;5077442;28;20054;-68
2023/12/13 03:00:25;;;;;;;12.82;2.83;;;9.30;99.90;;;;;;5078261;28;20315;-70
2023/12/13 03:02:51;;;;;;;10.15;1.77;;;9.30;99.90;;;;;;5078050;28;20031;-69
2023/12/13 03:05:17;;;;;;;11.77;2.03;;;9.30;99.90;;;;;;5077923;28;20028;-70
2023/12/13 03:07:43;;;;;;;9.77;2.40;;;9.40;99.90;;;;;;5093984;28;20028;-70
2023/12/13 03:10:09;;;;;;;11.55;2.30;;;9.40;99.90;;;;;;5077866;28;20439;-70
2023/12/13 03:12:35;;;;;;;12.10;1.98;;;9.40;99.90;;;;;;5077942;28;20040;-69
2023/12/13 03:15:01;;;;;;;12.02;1.98;;;9.40;99.90;;;;;;5077840;28;20370;-69
2023/12/13 03:17:26;;;;;;;10.30;1.83;;;9.30;99.90;;;;;;5077841;28;20051;-69
2023/12/13 03:19:52;;;;;;;10.50;1.98;;;9.30;99.90;;;;;;5093877;28;20032;-67
2023/12/13 03:22:18;;;;;;;10.52;2.45;;;9.30;99.90;;;;;;5077602;28;20048;-69
2023/12/13 03:24:45;;;;;;;15.45;2.20;;;9.30;99.90;;;;;;5076810;28;20023;-70
2023/12/13 03:27:11;;;;;;;13.15;1.98;;;9.20;99.90;;;;;;5077577;28;20017;-70
2023/12/13 03:29:37;;;;;;;14.80;2.20;;;9.30;99.90;;;;;;5036365;28;1197381;-69
2023/12/13 03:32:03;;;;;;;13.30;2.53;;;9.20;99.90;;;;;;5078544;28;20036;-69
2023/12/13 03:34:29;;;;;;;14.60;2.38;;;9.20;99.90;;;;;;5094593;28;20285;-68
2023/12/13 03:36:55;;;;;;;12.68;2.40;;;9.20;99.90;;;;;;5094571;28;20039;-69
2023/12/13 03:39:21;;;;;;;12.98;2.17;;;9.20;99.90;;;;;;5078280;28;20044;-68
2023/12/13 03:41:46;;;;;;;14.82;2.53;;;9.20;99.90;;;;;;5077568;28;20378;-69
2023/12/13 03:44:12;;;;;;;8.75;2.33;;;9.20;99.90;;;;;;5094343;28;20051;-70
2023/12/13 03:46:38;;;;;;;12.10;2.30;;;9.20;99.90;;;;;;5077468;28;20403;-68
2023/12/13 03:49:04;;;;;;;14.95;2.95;;;9.20;99.90;;;;;;5078233;28;20062;-69
2023/12/13 03:51:29;;;;;;;11.00;2.65;;;9.10;99.90;;;;;;5077433;28;20044;-68
2023/12/13 03:53:55;;;;;;;11.32;2.25;;;9.10;99.90;;;;;;5077366;28;20028;-69
2023/12/13 03:56:21;;;;;;;16.48;2.90;;;9.10;99.90;;;;;;5078133;28;20043;-69
2023/12/13 03:58:47;;;;;;;13.15;2.25;;;9.10;99.90;;;;;;5077190;28;20063;-69
2023/12/13 04:01:12;;;;;;;11.25;2.30;;;9.10;99.90;;;;;;5094131;28;20037;-69
2023/12/13 04:03:38;;;;;;;11.20;2.25;;;9.10;99.90;;;;;;5077918;28;20120;-69
2023/12/13 04:06:04;;;;;;;12.93;2.30;;;9.00;99.90;;;;;;5077866;28;20028;-68
2023/12/13 04:08:30;;;;;;;11.13;2.38;;;9.10;99.90;;;;;;5077836;28;20028;-68
2023/12/13 04:10:56;;;;;;;10.27;2.40;;;9.00;99.90;;;;;;5077079;28;20032;-68
2023/12/13 04:13:21;;;;;;;12.60;2.13;;;9.00;99.90;;;;;;5077751;28;20151;-69
2023/12/13 04:15:47;;;;;;;10.48;2.10;;;9.00;99.90;;;;;;5077000;28;20352;-68
2023/12/13 04:18:14;;;;;;;14.77;2.00;;;9.10;99.90;;;;;;5077624;28;20046;-70
2023/12/13 04:20:40;;;;;;;13.50;2.08;;;9.00;99.90;;;;;;5076957;28;20068;-69
2023/12/13 04:23:05;;;;;;;10.95;2.10;;;9.00;99.90;;;;;;5093724;28;20292;-70
2023/12/13 04:25:31;;;;;;;13.50;2.05;;;9.00;99.90;;;;;;5076793;28;20033;-67
2023/12/13 04:27:57;;;;;;;13.02;2.40;;;9.00;99.90;;;;;;5076535;28;20032;-69
2023/12/13 04:30:23;;;;;;;11.00;2.25;;;9.10;99.90;;;;;;5093682;28;20040;-68
2023/12/13 04:32:48;;;;;;;6.90;2.08;;;9.00;99.90;;;;;;5077590;28;20111;-69
2023/12/13 04:35:14;;;;;;;12.55;2.50;;;9.00;99.90;;;;;;5076710;28;20119;-70
2023/12/13 04:37:40;;;;;;;12.20;2.15;;;9.00;99.90;;;;;;5076510;28;20032;-70
2023/12/13 04:40:07;;;;;;;15.77;2.78;;;9.10;99.90;;;;;;5076703;28;20122;-69
2023/12/13 04:42:33;;;;;;;11.48;2.30;;;9.10;99.90;;;;;;5076610;28;20115;-71
2023/12/13 04:44:59;;;;;;;11.50;2.15;;;9.20;99.90;;;;;;5077203;28;20056;-69
2023/12/13 04:47:25;;;;;;;15.02;3.08;;;9.10;99.90;;;;;;5077211;28;20049;-69
2023/12/13 04:49:51;;;;;;;13.32;2.33;;;9.10;99.90;;;;;;5077126;28;20025;-69
2023/12/13 04:52:17;;;;;;;14.88;2.75;;;9.10;99.90;;;;;;5093241;28;20108;-67
2023/12/13 04:54:43;;;;;;;10.98;2.22;;;9.10;99.90;;;;;;5077425;28;20423;-70
2023/12/13 04:57:08;;;;;;;12.85;2.60;;;9.00;99.90;;;;;;5076253;28;20028;-69
2023/12/13 04:59:34;;;;;;;10.82;2.38;;;9.00;99.90;;;;;;5093097;28;20028;-67
2023/12/13 05:02:00;;;;;;;11.50;2.40;;;9.00;99.90;;;;;;5076997;28;20064;-68
2023/12/13 05:04:26;;;;;;;12.70;2.30;;;9.10;99.90;;;;;;5077233;28;20391;-69
2023/12/13 05:06:52;;;;;;;14.85;2.92;;;9.10;99.90;;;;;;5093144;28;20400;-67
2023/12/13 05:09:17;;;;;;;8.73;2.33;;;9.10;99.90;;;;;;5076835;28;20036;-69
2023/12/13 05:11:43;;;;;;;8.38;2.47;;;9.10;99.90;;;;;;5076225;28;20040;-70
2023/12/13 05:14:09;;;;;;;14.35;2.50;;;9.10;99.90;;;;;;5076881;28;20041;-68
2023/12/13 05:16:35;;;;;;;11.13;2.70;;;9.10;99.90;;;;;;5093018;28;20043;-69
2023/12/13 05:19:01;;;;;;;13.30;2.55;;;9.10;99.90;;;;;;5092915;28;20025;-66
2023/12/13 05:21:28;;;;;;;12.65;2.63;;;9.10;99.90;;;;;;5077052;28;20021;-70
2023/12/13 05:23:53;;;;;;;12.25;2.95;;;9.00;99.90;;;;;;5076094;28;20369;-69
2023/12/13 05:26:19;;;;;;;11.73;2.25;;;9.10;99.90;;;;;;5092818;28;20048;-69
2023/12/13 05:28:45;;;;;;;11.25;2.15;;;9.00;99.90;;;;;;5076635;28;20135;-69
2023/12/13 05:31:21;;;;;;;12.45;2.47;;;9.10;99.90;;;;;;5092819;28;20064;-69
2023/12/13 05:33:48;;;;;;;13.45;2.72;;;9.10;99.90;;;;;;5076715;28;20336;-70
2023/12/13 05:36:13;;;;;;;12.75;2.72;;;9.00;99.90;;;;;;5076612;28;20025;-69
2023/12/13 05:38:41;;;;;;;12.15;2.75;;;9.10;99.90;;;;;;5076521;28;20039;-69
2023/12/13 05:41:06;;;;;;;15.02;2.78;;;9.10;99.90;;;;;;5092632;28;20078;-69
2023/12/13 05:43:35;;;;;;;11.25;2.60;;;9.10;99.90;;;;;;5076711;28;20100;-69
2023/12/13 05:46:04;;;;;;;13.63;2.58;;;9.10;99.90;;;;;;5076603;28;20024;-68
2023/12/13 05:48:31;;;;;;;9.48;2.33;;;9.10;99.90;;;;;;5076820;28;20277;-68
2023/12/13 05:50:58;;;;;;;12.75;2.53;;;9.10;99.90;;;;;;5076405;28;20119;-69
2023/12/13 05:53:24;;;;;;;13.02;2.67;;;9.10;99.90;;;;;;5092537;28;20040;-69
2023/12/13 05:55:50;;;;;;;11.52;2.47;;;9.10;99.90;;;;;;5075751;28;20037;-68
2023/12/13 05:58:16;;;;;;;8.80;2.78;;;9.10;99.90;;;;;;5076313;28;20056;-67
2023/12/13 06:00:41;;;;;;;11.80;2.75;;;9.10;99.90;;;;;;5075517;28;20071;-68
2023/12/13 06:03:07;;;;;;;12.27;3.15;;;9.10;99.90;;;;;;5076232;28;20028;-68
2023/12/13 06:05:33;;;;;;;15.00;2.85;;;9.20;99.90;;;;;;5075366;28;20119;-68
2023/12/13 06:07:59;;;;;;;11.55;2.65;;;9.10;99.90;;;;;;5075291;28;20038;-67
2023/12/13 06:10:25;;;;;;;14.95;2.92;;;9.10;99.90;;;;;;5075428;28;20048;-68
2023/12/13 06:12:52;;;;;;;10.00;2.78;;;9.10;99.90;;;;;;5092374;28;20032;-69
2023/12/13 06:15:19;;;;;;;10.82;2.80;;;9.10;99.90;;;;;;5058563;28;20137;-68
2023/12/13 06:17:45;;;;;;;9.95;2.70;;;9.10;99.90;;;;;;5075329;28;20032;-69
2023/12/13 06:20:11;;;;;;;13.13;2.45;;;9.10;99.90;;;;;;5075266;28;20095;-68
2023/12/13 06:22:37;;;;;;;14.35;2.70;;;9.10;99.90;;;;;;5077655;28;20029;-69
2023/12/13 06:25:03;;;;;;;16.63;2.95;;;9.20;99.90;;;;;;5062255;28;20427;-69
2023/12/13 06:27:29;;;;;;;12.88;3.35;;;9.20;99.90;;;;;;5062282;28;20311;-70
2023/12/13 06:29:55;;;;;;;16.73;3.03;;;9.30;99.90;;;;;;5078805;28;20048;-67
2023/12/13 06:32:21;;;;;;;13.90;3.22;;;9.20;99.90;;;;;;5079670;28;20028;-69
2023/12/13 06:34:47;;;;;;;11.02;2.80;;;9.20;99.90;;;;;;5079018;28;20414;-69
2023/12/13 06:37:12;;;;;;;12.65;3.35;;;9.10;99.90;;;;;;5078680;28;20360;-69
2023/12/13 06:39:38;;;;;;;13.27;2.88;;;9.20;99.90;;;;;;5095652;28;20083;-69
2023/12/13 06:42:08;;;;;;;12.65;3.70;;;9.20;99.90;;;;;;5095540;28;20325;-69
2023/12/13 06:44:38;;;;;;;15.55;3.42;;;9.20;99.90;;;;;;5079385;28;20058;-68
2023/12/13 06:47:05;;;;;;;13.52;3.00;;;9.10;99.90;;;;;;5079607;28;20077;-69
2023/12/13 06:49:34;;;;;;;13.02;3.70;;;9.10;99.90;;;;;;5079311;28;20029;-69
2023/12/13 06:52:01;;;;;;;14.35;3.17;;;9.10;99.90;;;;;;5078399;28;20033;-69
2023/12/13 06:54:28;;;;;;;11.88;3.10;;;9.20;99.90;;;;;;5079277;28;20028;-70
2023/12/13 06:56:54;;;;;;;15.50;3.40;;;9.20;99.90;;;;;;5079058;28;20028;-69
2023/12/13 06:59:20;;;;;;;11.77;2.88;;;9.20;99.90;;;;;;5095099;28;20458;-67
2023/12/13 07:01:46;;;;;;;13.52;2.97;;;9.20;99.90;;;;;;5079312;28;20032;-67
2023/12/13 07:04:12;;;;;;;9.68;2.90;;;9.10;99.90;;;;;;5078263;28;20028;-68
2023/12/13 07:06:37;;;;;;;9.65;2.78;;;9.00;99.90;;;;;;5078325;28;20039;-70
2023/12/13 07:09:03;;;;;;;11.20;2.80;;;9.10;99.90;;;;;;5095094;28;20032;-69
2023/12/13 07:11:29;;;;;;;17.08;3.55;;;9.10;99.90;;;;;;5095086;28;20459;-70
2023/12/13 07:13:55;;;;;;;11.10;3.40;;;9.10;99.90;;;;;;5078345;28;20032;-69
2023/12/13 07:16:21;;;;;;;16.60;3.22;;;9.10;99.90;;;;;;5077945;28;20045;-69
2023/12/13 07:18:47;;;;;;;14.23;3.22;;;9.10;99.90;;;;;;5061326;28;20288;-69
2023/12/13 07:21:13;;;;;;;12.75;3.75;;;9.00;99.90;;;;;;5094857;28;20107;-69
2023/12/13 07:23:40;;;;;;;11.90;3.67;;;9.00;99.90;;;;;;5077851;28;20056;-69
2023/12/13 07:26:07;;;;;;;14.45;3.40;;;9.00;99.90;;;;;;5078029;28;20061;-65
2023/12/13 07:28:33;;;;;;;12.00;3.03;;;9.20;99.90;;;;;;5077674;28;20442;-63
2023/12/13 07:31:04;;;;;;;11.48;3.25;;;9.40;99.90;;;;;;5078679;28;20056;-69
2023/12/13 07:33:34;;;;;;;13.30;3.80;;;9.30;99.90;;;;;;5077292;28;20039;-68
2023/12/13 07:36:00;;;;;;;12.82;4.03;;;9.30;99.90;;;;;;5077675;28;20028;-70
2023/12/13 07:38:26;;;;;;;20.02;3.95;;;9.20;99.90;;;;;;5094354;28;20041;-64
2023/12/13 07:40:52;;;;;;;12.68;3.83;;;9.20;99.90;;;;;;5077568;28;20028;-71
2023/12/13 07:43:18;;;;;;;14.10;4.07;;;9.20;99.90;;;;;;5077367;28;20036;-71
2023/12/13 07:45:43;;;;;;;15.27;4.10;;;9.20;99.90;;;;;;5077103;28;20257;-71
2023/12/13 07:48:09;;;;;;;12.25;3.50;;;9.20;99.90;;;;;;5077957;28;20086;-72
2023/12/13 07:50:35;;;;;;;8.45;3.53;;;9.20;99.90;;;;;;5077927;28;20048;-71
2023/12/13 07:53:01;;;;;;;9.07;3.15;;;9.10;99.90;;;;;;5077050;28;20087;-71
2023/12/13 07:55:26;;;;;;;10.82;3.70;;;9.20;99.90;;;;;;5093994;28;20043;-71
2023/12/13 07:57:52;;;;;;;12.00;3.78;;;9.20;99.90;;;;;;5093766;28;20066;-71
2023/12/13 08:00:18;;;;;;;15.50;4.00;;;9.20;99.90;;;;;;5077157;28;20107;-72
2023/12/13 08:02:45;;;;;;;10.85;3.17;;;9.30;99.90;;;;;;5077054;28;20032;-72
2023/12/13 08:05:13;;;;;;;16.85;4.18;;;9.30;99.90;;;;;;5077308;28;20388;-71
2023/12/13 08:07:39;;;;;;;12.40;3.47;;;9.20;99.90;;;;;;5077017;28;20032;-71
2023/12/13 08:10:07;;;;;;;15.60;3.95;;;9.20;99.90;;;;;;5077192;28;20040;-71
2023/12/13 08:12:36;;;;;;;15.13;3.25;;;9.20;99.90;;;;;;5077696;28;20039;-66
2023/12/13 08:15:05;;;;;;;10.68;3.45;;;9.20;99.90;;;;;;5077717;28;20391;-70
2023/12/13 08:17:33;;;;;;;14.07;3.15;;;9.20;99.90;;;;;;5077590;28;20400;-71
2023/12/13 08:20:00;;;;;;;13.13;3.40;;;9.20;99.90;;;;;;5077581;28;20096;-71
2023/12/13 08:22:26;;;;;;;12.90;3.38;;;9.20;99.90;;;;;;5076679;28;20040;-72
2023/12/13 08:24:52;;;;;;;12.15;3.35;;;9.20;99.90;;;;;;5060169;28;20397;-71
2023/12/13 08:27:17;;;;;;;11.85;3.85;;;9.30;99.90;;;;;;5077519;28;20071;-71
2023/12/13 08:29:43;;;;;;;18.33;3.65;;;9.30;99.90;;;;;;5076635;28;20105;-71
2023/12/13 08:32:09;;;;;;;9.68;2.92;;;9.30;99.90;;;;;;5076626;28;20029;-71
2023/12/13 08:34:35;;;;;;;12.15;3.20;;;9.30;99.90;;;;;;5076607;28;20285;-72
2023/12/13 08:37:01;;;;;;;8.40;2.90;;;9.40;99.90;;;;;;5076458;28;20032;-72
2023/12/13 08:39:27;;;;;;;12.23;3.13;;;9.40;99.90;;;;;;5077267;28;20035;-72
2023/12/13 08:41:53;;;;;;;13.98;3.35;;;9.40;99.90;;;;;;5093400;28;20036;-72
2023/12/13 08:44:19;;;;;;;13.32;3.20;;;9.50;99.90;;;;;;5076232;28;20029;-72
2023/12/13 08:46:46;;;;;;;9.43;2.92;;;9.50;99.90;;;;;;5093246;28;20031;-72
2023/12/13 08:49:12;;;;;;;11.77;3.30;;;9.50;99.90;;;;;;5077163;28;20032;-72
2023/12/13 08:51:37;;;;;;;10.77;2.95;;;9.50;99.90;;;;;;5076444;28;20052;-72
2023/12/13 08:54:04;;;;;;;10.73;2.38;;;9.60;99.90;;;;;;5093155;28;20071;-72
2023/12/13 08:56:31;;;;;;;12.85;2.90;;;9.50;99.90;;;;;;5093072;28;20040;-71
2023/12/13 08:58:57;;;;;;;8.07;2.33;;;9.50;99.90;;;;;;5076105;28;20036;-72
2023/12/13 09:01:23;;;;;;;13.75;3.15;;;9.40;99.90;;;;;;5077160;28;20036;-73
2023/12/13 09:03:50;;;;;;;11.80;2.88;;;9.40;99.90;;;;;;5076970;28;20036;-72
2023/12/13 09:06:16;;;;;;;10.35;2.67;;;9.40;99.90;;;;;;5093076;28;20112;-72
2023/12/13 09:08:43;;;;;;;11.93;3.10;;;9.30;99.90;;;;;;5093125;28;20569;-72
2023/12/13 09:11:09;;;;;;;9.20;2.38;;;9.40;99.90;;;;;;5076807;28;20369;-72
2023/12/13 09:13:35;;;;;;;13.48;2.90;;;9.40;99.90;;;;;;5059279;28;20036;-72
2023/12/13 09:16:00;;;;;;;7.80;2.47;;;9.40;99.90;;;;;;5075888;28;20101;-72
2023/12/13 09:18:26;;;;;;;11.02;2.97;;;9.40;99.90;;;;;;5076878;28;20037;-72
2023/12/13 09:20:52;;;;;;;11.77;3.30;;;9.40;99.90;;;;;;5059190;28;20067;-69
2023/12/13 09:23:25;;;;;;;13.40;3.63;;;9.30;99.90;;;;;;5075960;28;20114;-71
2023/12/13 09:25:52;;;;;;;11.95;3.22;;;9.30;99.90;;;;;;5076680;28;20063;-72
2023/12/13 09:28:18;;;;;;;10.45;2.88;;;9.30;99.90;;;;;;5092485;28;20040;-72
2023/12/13 09:30:44;;;;;;;11.68;2.88;;;9.40;99.90;;;;;;5075880;28;20040;-67
2023/12/13 09:33:11;;;;;;;13.55;3.58;;;9.30;99.90;;;;;;5076593;28;20300;-72
2023/12/13 09:35:41;;;;;;;16.10;3.45;;;9.40;99.90;;;;;;5075803;28;20028;-73
2023/12/13 09:38:07;;;;;;;10.00;3.38;;;9.40;99.90;;;;;;5076265;28;20040;-71
2023/12/13 09:40:33;;;;;;;11.52;3.60;;;9.40;99.90;;;;;;5076626;28;20070;-72
2023/12/13 09:43:00;;;;;;;15.45;3.65;;;9.30;99.90;;;;;;5076413;28;20451;-73
2023/12/13 09:45:28;;;;;;;9.90;3.30;;;9.40;99.90;;;;;;5076533;28;20024;-72
2023/12/13 09:47:55;;;;;;;12.10;3.53;;;9.50;99.90;;;;;;5076307;28;20388;-71
2023/12/13 09:50:26;;;;;;;13.18;3.42;;;9.50;99.90;;;;;;5075715;28;20079;-72
2023/12/13 09:52:53;;;;;;;10.25;3.30;;;9.60;99.90;;;;;;5076216;28;20345;-72
2023/12/13 09:55:20;;;;;;;15.95;3.80;;;9.60;99.90;;;;;;5075422;28;20050;-72
2023/12/13 09:57:46;;;;;;;10.07;3.40;;;9.70;99.90;;;;;;5078015;28;20298;-71
2023/12/13 10:00:12;;;;;;;10.60;2.92;;;9.70;99.90;;;;;;5080070;28;20035;-72
2023/12/13 10:02:38;;;;;;;12.45;3.00;;;9.80;99.90;;;;;;5096098;28;20025;-66
2023/12/13 10:05:08;;;;;;;8.70;3.13;;;10.00;99.90;;;;;;5080109;28;20052;-71
2023/12/13 10:07:34;;;;;;;11.15;3.47;;;9.90;99.90;;;;;;5078999;28;20036;-72
2023/12/13 10:10:00;;;;;;;11.90;3.00;;;10.00;99.90;;;;;;5079950;28;20414;-70
2023/12/13 10:12:26;;;;;;;9.23;3.50;;;10.00;99.90;;;;;;5078914;28;20037;-71
2023/12/13 10:14:52;;;;;;;13.98;3.60;;;9.80;99.90;;;;;;5079003;28;20036;-71
2023/12/13 10:17:22;;;;;;;9.38;2.88;;;9.90;99.90;;;;;;5095830;28;20020;-71
2023/12/13 10:19:48;;;;;;;12.30;3.60;;;9.90;99.90;;;;;;5079597;28;20047;-72
2023/12/13 10:22:17;;;;;;;10.15;3.85;;;9.80;99.90;;;;;;5079685;28;20029;-69
2023/12/13 10:24:43;;;;;;;13.95;3.58;;;9.70;99.90;;;;;;5079546;28;20123;-70
2023/12/13 10:27:09;;;;;;;9.55;3.45;;;9.80;99.90;;;;;;5079466;28;20049;-71
2023/12/13 10:29:35;;;;;;;14.75;3.75;;;9.90;99.90;;;;;;5078611;28;20117;-72
2023/12/13 10:32:02;;;;;;;8.75;3.70;;;9.80;99.90;;;;;;5078774;28;20036;-71
2023/12/13 10:34:29;;;;;;;11.07;3.22;;;9.80;99.90;;;;;;5095403;28;20032;-72
2023/12/13 10:36:55;;;;;;;9.88;3.80;;;9.90;99.90;;;;;;5061789;28;20302;-72
2023/12/13 10:39:25;;;;;;;11.52;3.95;;;9.80;99.90;;;;;;5095534;28;20028;-71
2023/12/13 10:41:56;;;;;;;12.25;4.50;;;9.80;99.90;;;;;;5079579;28;20426;-71
2023/12/13 10:44:23;;;;;;;11.98;3.85;;;9.80;99.90;;;;;;5078498;28;20043;-71
2023/12/13 10:46:56;;;;;;;12.85;3.92;;;9.90;99.90;;;;;;5078538;28;20273;-72
2023/12/13 10:49:22;;;;;;;10.55;3.90;;;10.00;99.90;;;;;;5061860;28;20032;-72
2023/12/13 10:51:49;;;;;;;11.60;3.97;;;9.90;99.90;;;;;;5078312;28;20024;-71
2023/12/13 10:54:16;;;;;;;11.07;4.10;;;9.80;99.90;;;;;;5078983;28;20315;-71
2023/12/13 10:56:42;;;;;;;11.55;3.88;;;9.70;99.90;;;;;;5061404;28;20028;-71
2023/12/13 10:59:10;;;;;;;12.23;4.88;;;9.70;99.90;;;;;;5078187;28;20335;-71
2023/12/13 11:01:39;;;;;;;8.95;4.30;;;9.70;99.90;;;;;;5079023;28;20028;-71
2023/12/13 11:04:12;;;;;;;12.57;4.30;;;9.80;99.90;;;;;;5061337;28;20432;-71
2023/12/13 11:06:40;;;;;;;19.50;4.75;;;9.90;99.90;;;;;;5078344;28;20113;-70
2023/12/13 11:09:21;;;;;;;13.25;4.65;;;10.00;99.90;;;;;;5077516;28;20062;-73
2023/12/13 11:11:47;;;;;;;12.10;4.20;;;10.00;99.90;;;;;;5078758;28;20032;-72
2023/12/13 11:14:15;;;;;;;13.15;4.45;;;10.00;99.90;;;;;;5078690;28;20068;-71
2023/12/13 11:16:49;;;;;;;13.27;4.97;;;10.10;99.90;;;;;;5078494;28;20116;-72
2023/12/13 11:19:20;;;;;;;12.20;4.35;;;10.20;99.90;;;;;;5078492;28;20036;-72
2023/12/13 11:21:48;;;;;;;16.88;4.43;;;10.10;99.90;;;;;;5078563;28;20345;-72
2023/12/13 11:24:14;;;;;;;11.55;4.03;;;10.10;99.90;;;;;;5094700;28;20035;-72
2023/12/13 11:26:42;;;;;;;13.38;4.22;;;10.20;99.90;;;;;;5078821;28;20391;-72
2023/12/13 11:29:15;;;;;;;13.20;3.95;;;10.10;99.90;;;;;;5078248;28;20383;-72
2023/12/13 11:32:03;;;;;;;11.45;4.65;;;10.00;99.90;;;;;;5077786;28;20036;-67
2023/12/13 11:34:42;;;;;;;12.05;3.92;;;9.90;99.90;;;;;;5060797;28;20028;-72
2023/12/13 11:37:11;;;;;;;11.43;4.53;;;10.10;99.90;;;;;;5078100;28;20032;-72
2023/12/13 11:39:40;;;;;;;11.20;4.50;;;10.00;99.90;;;;;;5077350;28;20324;-72
2023/12/13 11:42:08;;;;;;;11.45;4.50;;;9.90;99.90;;;;;;5078124;28;20040;-66
2023/12/13 11:44:36;;;;;;;10.52;4.28;;;9.80;99.90;;;;;;5078134;28;20035;-71
2023/12/13 11:47:08;;;;;;;11.15;4.18;;;9.80;99.90;;;;;;5078347;28;20289;-71
2023/12/13 11:49:36;;;;;;;14.75;4.55;;;9.80;99.90;;;;;;5078338;28;20020;-73
2023/12/13 11:52:05;;;;;;;11.05;4.55;;;9.70;99.90;;;;;;5077863;28;20048;-72
2023/12/13 11:54:33;;;;;;;10.32;4.63;;;9.70;99.90;;;;;;5078117;28;20032;-72
2023/12/13 11:56:59;;;;;;;11.82;4.72;;;9.70;99.90;;;;;;5077527;28;20277;-72
2023/12/13 11:59:25;;;;;;;15.95;5.13;;;9.80;99.90;;;;;;5077769;28;20395;-72
2023/12/13 12:01:51;;;;;;;11.35;4.50;;;9.80;99.90;;;;;;5077034;28;20028;-72
2023/12/13 12:04:21;;;;;;;13.90;5.18;;;9.80;99.90;;;;;;5077720;28;20077;-72
2023/12/13 12:06:52;;;;;;;13.10;4.80;;;9.90;99.90;;;;;;5077757;28;20032;-72
2023/12/13 12:09:23;;;;;;;9.10;4.80;;;9.90;99.90;;;;;;5076977;28;20060;-71
2023/12/13 12:11:53;;;;;;;11.40;5.13;;;9.90;99.90;;;;;;5078446;28;20365;-72
2023/12/13 12:14:24;;;;;;;11.70;5.00;;;9.90;99.90;;;;;;5077542;28;20025;-72
2023/12/13 12:16:50;;;;;;;10.40;4.88;;;9.80;99.90;;;;;;5077632;28;20032;-70
2023/12/13 12:19:17;;;;;;;9.88;4.97;;;10.00;99.90;;;;;;5075738;28;20031;-70
2023/12/13 12:21:44;;;;;;;9.32;4.43;;;10.00;99.90;;;;;;5093378;28;20032;-72
2023/12/13 12:24:10;;;;;;;9.23;4.30;;;10.00;99.90;;;;;;5077542;28;20107;-71
2023/12/13 12:26:37;;;;;;;7.90;4.93;;;9.90;99.90;;;;;;5077653;28;20028;-72
2023/12/13 12:29:03;;;;;;;9.23;4.85;;;9.90;99.90;;;;;;5076367;28;20048;-72
2023/12/13 12:31:30;;;;;;;9.85;4.72;;;10.00;99.90;;;;;;5077439;28;20039;-71
2023/12/13 12:33:58;;;;;;;7.05;4.78;;;10.00;99.90;;;;;;5059798;28;20300;-72
2023/12/13 12:36:25;;;;;;;7.93;5.25;;;10.10;99.90;;;;;;5077124;28;20051;-71
2023/12/13 12:38:51;;;;;;;10.02;5.18;;;10.30;99.90;;;;;;5076966;28;20395;-72
2023/12/13 12:41:18;;;;;;;8.23;4.60;;;10.20;99.90;;;;;;5076263;28;20127;-72
2023/12/13 12:43:46;;;;;;;12.02;4.55;;;10.40;99.90;;;;;;5076972;28;20300;-72
2023/12/13 12:46:12;;;;;;;10.73;4.97;;;10.50;99.90;;;;;;5076987;28;20054;-70